createdAt,value
2018-02-14T00:00:30.460Z,5.37
2018-02-14T00:02:59.354Z,5.60
2018-02-14T00:05:28.235Z,5.53
2018-02-14T00:07:57.118Z,5.35
2018-02-14T00:10:25.308Z,5.43
2018-02-14T00:12:54.174Z,5.50
2018-02-14T00:15:22.270Z,5.12
2018-02-14T00:17:50.440Z,5.20
2018-02-14T00:20:19.313Z,5.40
2018-02-14T00:22:47.413Z,5.00
2018-02-14T00:25:15.510Z,5.35
2018-02-14T00:27:43.618Z,5.37
2018-02-14T00:30:11.729Z,5.22
2018-02-14T00:32:39.885Z,5.10
2018-02-14T00:35:08.752Z,5.10
2018-02-14T00:37:36.857Z,4.53
2018-02-14T00:40:05.752Z,4.60
2018-02-14T00:42:33.917Z,4.93
2018-02-14T00:45:02.775Z,5.20
2018-02-14T00:47:30.883Z,5.03
2018-02-14T00:49:59.047Z,4.90
2018-02-14T00:52:27.961Z,4.53
2018-02-14T00:54:56.055Z,4.85
2018-02-14T00:57:24.183Z,4.65
2018-02-14T00:59:53.065Z,4.60
2018-02-14T01:02:21.923Z,4.45
2018-02-14T01:04:50.021Z,4.82
2018-02-14T01:07:18.919Z,4.35
2018-02-14T01:09:47.809Z,4.10
2018-02-14T01:12:16.697Z,4.15
2018-02-14T01:14:45.607Z,4.12
2018-02-14T01:17:13.695Z,4.00
2018-02-14T01:19:41.819Z,4.87
2018-02-14T01:22:10.691Z,3.95
2018-02-14T01:24:38.801Z,4.07
2018-02-14T01:27:06.919Z,3.78
2018-02-14T01:29:35.011Z,4.12
2018-02-14T01:32:03.211Z,4.93
2018-02-14T01:34:32.078Z,4.05
2018-02-14T01:37:00.182Z,4.00
2018-02-14T01:39:28.294Z,4.00
2018-02-14T01:41:56.438Z,4.55
2018-02-14T01:44:24.607Z,4.30
2018-02-14T01:46:52.710Z,4.10
2018-02-14T01:49:20.823Z,4.45
2018-02-14T01:51:49.706Z,4.30
2018-02-14T01:54:17.821Z,4.22
2018-02-14T01:56:45.927Z,4.18
2018-02-14T01:59:14.139Z,3.90
2018-02-14T02:01:43.143Z,4.20
2018-02-14T02:04:12.019Z,4.35
2018-02-14T02:06:40.886Z,4.07
2018-02-14T02:09:09.025Z,4.20
2018-02-14T02:11:37.139Z,4.10
2018-02-14T02:14:05.331Z,4.12
2018-02-14T02:16:34.199Z,4.37
2018-02-14T02:19:02.307Z,4.30
2018-02-14T02:21:30.418Z,4.00
2018-02-14T02:23:58.527Z,3.78
2018-02-14T02:26:27.407Z,4.05
2018-02-14T02:28:55.604Z,4.10
2018-02-14T02:31:24.480Z,3.62
2018-02-14T02:33:53.349Z,3.92
2018-02-14T02:36:21.587Z,3.60
2018-02-14T02:38:49.724Z,3.80
2018-02-14T02:41:18.615Z,4.20
2018-02-14T02:43:47.480Z,3.80
2018-02-14T02:46:16.351Z,3.92
2018-02-14T02:48:44.465Z,4.12
2018-02-14T02:51:13.459Z,4.40
2018-02-14T02:53:42.328Z,3.92
2018-02-14T02:56:10.429Z,4.28
2018-02-14T02:58:38.530Z,4.22
2018-02-14T03:01:06.654Z,4.07
2018-02-14T03:03:35.514Z,3.83
2018-02-14T03:06:03.637Z,4.03
2018-02-14T03:08:31.754Z,4.30
2018-02-14T03:10:59.874Z,4.43
2018-02-14T03:13:28.756Z,4.22
2018-02-14T03:15:57.646Z,3.78
2018-02-14T03:18:26.525Z,4.43
2018-02-14T03:20:55.402Z,4.45
2018-02-14T03:23:23.599Z,4.62
2018-02-14T03:25:52.468Z,4.75
2018-02-14T03:28:20.587Z,4.47
2018-02-14T03:30:48.702Z,4.60
2018-02-14T03:33:16.825Z,4.18
2018-02-14T03:35:44.933Z,4.37
2018-02-14T03:38:13.046Z,4.45
2018-02-14T03:40:41.938Z,4.32
2018-02-14T03:43:10.808Z,4.60
2018-02-14T03:45:38.913Z,4.60
2018-02-14T03:48:07.026Z,4.05
2018-02-14T03:50:35.150Z,4.35
2018-02-14T03:53:03.315Z,4.28
2018-02-14T03:55:32.185Z,4.50
2018-02-14T03:58:00.379Z,4.50
2018-02-14T04:00:29.365Z,4.30
2018-02-14T04:02:58.291Z,4.30
2018-02-14T04:05:26.401Z,4.45
2018-02-14T04:07:54.602Z,4.50
2018-02-14T04:10:23.487Z,4.45
2018-02-14T04:12:52.386Z,4.53
2018-02-14T04:15:21.260Z,4.12
2018-02-14T04:17:49.357Z,4.65
2018-02-14T04:20:17.479Z,4.25
2018-02-14T04:22:45.628Z,4.60
2018-02-14T04:25:13.703Z,5.07
2018-02-14T04:27:41.811Z,5.00
2018-02-14T04:30:09.913Z,4.72
2018-02-14T04:32:38.049Z,4.20
2018-02-14T04:35:06.262Z,4.60
2018-02-14T04:37:34.457Z,4.25
2018-02-14T04:40:02.554Z,4.62
2018-02-14T04:42:30.677Z,5.00
2018-02-14T04:44:59.551Z,4.45
2018-02-14T04:47:28.447Z,4.93
2018-02-14T04:49:57.343Z,4.90
2018-02-14T04:52:26.335Z,4.80
2018-02-14T04:54:55.202Z,4.70
2018-02-14T04:57:23.395Z,5.20
2018-02-14T04:59:52.391Z,4.68
2018-02-14T05:02:21.432Z,4.50
2018-02-14T05:04:49.535Z,5.03
2018-02-14T05:07:17.633Z,4.82
2018-02-14T05:09:45.739Z,4.90
2018-02-14T05:12:13.967Z,5.05
2018-02-14T05:14:42.839Z,5.03
2018-02-14T05:17:11.062Z,5.18
2018-02-14T05:19:39.207Z,5.22
2018-02-14T05:22:08.099Z,5.37
2018-02-14T05:24:36.974Z,5.05
2018-02-14T05:27:05.163Z,4.87
2018-02-14T05:29:34.152Z,4.72
2018-02-14T05:32:03.059Z,5.03
2018-02-14T05:34:31.216Z,5.10
2018-02-14T05:37:00.079Z,5.18
2018-02-14T05:39:28.291Z,5.68
2018-02-14T05:41:56.407Z,5.05
2018-02-14T05:44:24.524Z,5.43
2018-02-14T05:46:53.399Z,5.70
2018-02-14T05:49:22.279Z,5.50
2018-02-14T05:51:50.395Z,5.22
2018-02-14T05:54:18.545Z,5.80
2018-02-14T05:56:47.413Z,5.35
2018-02-14T05:59:15.607Z,5.85
2018-02-14T06:01:44.503Z,5.37
2018-02-14T06:04:13.368Z,5.68
2018-02-14T06:06:41.478Z,5.47
2018-02-14T06:09:09.634Z,5.85
2018-02-14T06:11:38.561Z,5.37
2018-02-14T06:14:06.654Z,5.53
2018-02-14T06:16:34.766Z,6.00
2018-02-14T06:19:03.662Z,5.32
2018-02-14T06:21:32.543Z,5.68
2018-02-14T06:24:01.440Z,6.12
2018-02-14T06:26:30.311Z,5.45
2018-02-14T06:28:59.186Z,5.68
2018-02-14T06:31:27.345Z,6.35
2018-02-14T06:33:55.562Z,5.62
2018-02-14T06:36:24.446Z,6.00
2018-02-14T06:38:53.332Z,6.37
2018-02-14T06:41:22.206Z,6.35
2018-02-14T06:43:50.334Z,6.28
2018-02-14T06:46:18.434Z,6.32
2018-02-14T06:48:46.542Z,6.35
2018-02-14T06:51:15.429Z,6.40
2018-02-14T06:53:44.322Z,6.45
2018-02-14T06:56:13.198Z,6.47
2018-02-14T06:58:41.306Z,6.62
2018-02-14T07:01:09.441Z,6.50
2018-02-14T07:03:37.643Z,6.95
2018-02-14T07:06:05.746Z,7.00
2018-02-14T07:08:34.012Z,6.78
2018-02-14T07:11:02.120Z,6.72
2018-02-14T07:13:30.344Z,6.90
2018-02-14T07:15:58.498Z,6.60
2018-02-14T07:18:27.490Z,6.95
2018-02-14T07:20:56.376Z,7.22
2018-02-14T07:23:30.318Z,6.82
2018-02-14T07:25:58.460Z,6.12
2018-02-14T07:28:27.338Z,6.87
2018-02-14T07:30:56.259Z,6.87
2018-02-14T07:33:24.362Z,6.45
2018-02-14T07:35:52.484Z,6.50
2018-02-14T07:38:21.371Z,7.28
2018-02-14T07:40:50.288Z,6.62
2018-02-14T07:43:18.433Z,7.50
2018-02-14T07:45:47.322Z,6.87
2018-02-14T07:48:16.216Z,6.78
2018-02-14T07:50:45.107Z,7.28
2018-02-14T07:53:14.030Z,7.35
2018-02-14T07:55:42.140Z,7.45
2018-02-14T07:58:10.344Z,6.80
2018-02-14T08:00:39.260Z,6.30
2018-02-14T08:03:07.503Z,6.60
2018-02-14T08:05:36.379Z,6.80
2018-02-14T08:08:04.605Z,6.87
2018-02-14T08:10:32.743Z,7.20
2018-02-14T08:13:01.751Z,6.60
2018-02-14T08:15:29.867Z,7.10
2018-02-14T08:17:58.083Z,6.62
2018-02-14T08:20:27.109Z,6.97
2018-02-14T08:22:55.259Z,6.68
2018-02-14T08:25:23.375Z,6.80
2018-02-14T08:27:51.495Z,7.12
2018-02-14T08:30:20.583Z,6.97
2018-02-14T08:32:49.499Z,6.90
2018-02-14T08:35:17.595Z,6.80
2018-02-14T08:37:45.831Z,7.00
2018-02-14T08:40:13.983Z,7.50
2018-02-14T08:42:42.863Z,6.93
2018-02-14T08:45:11.059Z,7.43
2018-02-14T08:47:39.939Z,7.25
2018-02-14T08:50:08.823Z,7.35
2018-02-14T08:52:38.451Z,7.47
2018-02-14T08:55:07.331Z,7.55
2018-02-14T08:57:36.227Z,7.53
2018-02-14T09:00:05.148Z,7.60
2018-02-14T09:02:33.395Z,7.50
2018-02-14T09:05:02.417Z,7.72
2018-02-14T09:07:30.587Z,8.10
2018-02-14T09:09:59.454Z,7.82
2018-02-14T09:12:28.319Z,7.72
2018-02-14T09:14:56.522Z,7.45
2018-02-14T09:17:25.470Z,7.72
2018-02-14T09:19:53.604Z,7.80
2018-02-14T09:22:21.706Z,8.38
2018-02-14T09:24:49.832Z,7.97
2018-02-14T09:27:17.934Z,7.82
2018-02-14T09:29:46.050Z,7.80
2018-02-14T09:32:14.942Z,7.85
2018-02-14T09:34:43.810Z,7.40
2018-02-14T09:37:11.914Z,7.82
2018-02-14T09:39:40.938Z,7.65
2018-02-14T09:42:09.040Z,7.55
2018-02-14T09:44:37.954Z,8.07
2018-02-14T09:47:06.858Z,8.10
2018-02-14T09:49:35.766Z,8.45
2018-02-14T09:52:03.907Z,8.05
2018-02-14T09:54:32.785Z,7.68
2018-02-14T09:57:00.898Z,7.93
2018-02-14T09:59:29.018Z,8.07
2018-02-14T10:01:57.146Z,7.93
2018-02-14T10:04:25.294Z,8.50
2018-02-14T10:06:54.182Z,7.80
2018-02-14T10:09:23.102Z,7.97
2018-02-14T10:11:51.260Z,7.75
2018-02-14T10:14:20.142Z,7.93
2018-02-14T10:16:49.064Z,7.83
2018-02-14T10:19:17.154Z,8.23
2018-02-14T10:21:45.264Z,8.48
2018-02-14T10:24:13.486Z,7.90
2018-02-14T10:26:41.587Z,8.25
2018-02-14T10:29:09.930Z,7.87
2018-02-14T10:31:38.079Z,7.53
2018-02-14T10:34:06.260Z,7.55
2018-02-14T10:36:34.393Z,8.10
2018-02-14T10:39:02.594Z,7.90
2018-02-14T10:41:31.504Z,7.68
2018-02-14T10:43:59.604Z,8.18
2018-02-14T10:46:27.731Z,7.97
2018-02-14T10:48:55.887Z,8.52
2018-02-14T10:51:24.787Z,8.23
2018-02-14T10:53:53.655Z,8.02
2018-02-14T10:56:21.793Z,7.82
2018-02-14T10:58:49.892Z,7.78
2018-02-14T11:01:23.861Z,7.78
2018-02-14T11:03:51.983Z,7.90
2018-02-14T11:06:20.531Z,7.43
2018-02-14T11:08:48.645Z,7.55
2018-02-14T11:11:16.763Z,7.35
2018-02-14T11:13:44.903Z,7.12
2018-02-14T11:16:13.775Z,6.87
2018-02-14T11:18:41.871Z,6.95
2018-02-14T11:21:09.983Z,6.78
2018-02-14T11:23:38.087Z,6.93
2018-02-14T11:26:06.179Z,6.70
2018-02-14T11:28:35.214Z,6.57
2018-02-14T11:31:03.325Z,6.45
2018-02-14T11:33:33.050Z,7.00
2018-02-14T11:36:02.039Z,6.70
2018-02-14T11:38:30.903Z,7.25
2018-02-14T11:40:59.111Z,6.93
2018-02-14T11:43:27.979Z,7.28
2018-02-14T11:45:56.099Z,7.00
2018-02-14T11:48:24.227Z,6.80
2018-02-14T11:50:52.311Z,6.62
2018-02-14T11:53:21.199Z,6.55
2018-02-14T11:55:50.072Z,7.12
2018-02-14T11:58:18.993Z,7.87
2018-02-14T12:00:47.142Z,7.55
2018-02-14T12:03:15.231Z,7.62
2018-02-14T12:05:44.121Z,8.10
2018-02-14T12:08:12.994Z,7.93
2018-02-14T12:10:41.898Z,8.40
2018-02-14T12:13:10.818Z,8.70
2018-02-14T12:15:38.966Z,8.23
2018-02-14T12:18:07.070Z,8.20
2018-02-14T12:20:35.206Z,8.00
2018-02-14T12:23:03.382Z,7.50
2018-02-14T12:25:32.266Z,8.20
2018-02-14T12:28:01.136Z,8.05
2018-02-14T12:30:29.290Z,8.25
2018-02-14T12:32:57.376Z,7.85
2018-02-14T12:35:25.478Z,8.10
2018-02-14T12:37:53.614Z,7.93
2018-02-14T12:40:21.702Z,7.80
2018-02-14T12:42:50.610Z,7.40
2018-02-14T12:45:19.603Z,7.50
2018-02-14T12:47:48.472Z,7.35
2018-02-14T12:50:16.654Z,6.75
2018-02-14T12:52:45.538Z,7.00
2018-02-14T12:55:14.402Z,6.72
2018-02-14T12:57:42.536Z,6.97
2018-02-14T13:00:10.686Z,6.78
2018-02-14T13:02:39.572Z,6.87
2018-02-14T13:05:08.466Z,7.03
2018-02-14T13:07:37.343Z,6.87
2018-02-14T13:10:06.250Z,6.55
2018-02-14T13:12:35.128Z,6.15
2018-02-14T13:15:03.221Z,6.40
2018-02-14T13:17:31.318Z,5.90
2018-02-14T13:19:59.466Z,6.35
2018-02-14T13:22:27.599Z,6.30
2018-02-14T13:24:55.703Z,5.97
2018-02-14T13:27:24.622Z,4.95
2018-02-14T13:29:52.717Z,5.43
2018-02-14T13:32:20.830Z,4.85
2018-02-14T13:34:49.722Z,5.57
2018-02-14T13:37:18.609Z,5.40
2018-02-14T13:39:47.497Z,5.50
2018-02-14T13:42:16.393Z,4.87
2018-02-14T13:44:45.316Z,4.75
2018-02-14T13:47:13.409Z,4.55
2018-02-14T13:49:41.601Z,4.53
2018-02-14T13:52:09.690Z,4.65
2018-02-14T13:54:38.591Z,4.70
2018-02-14T13:57:07.584Z,4.47
2018-02-14T13:59:36.470Z,4.37
2018-02-14T14:02:05.461Z,4.85
2018-02-14T14:04:34.334Z,4.45
2018-02-14T14:07:02.433Z,4.30
2018-02-14T14:09:30.573Z,4.03
2018-02-14T14:11:58.774Z,4.60
2018-02-14T14:14:27.672Z,3.83
2018-02-14T14:16:56.549Z,4.35
2018-02-14T14:19:24.786Z,4.00
2018-02-14T14:21:53.038Z,4.50
2018-02-14T14:24:21.144Z,4.37
2018-02-14T14:26:49.355Z,4.28
2018-02-14T14:29:18.240Z,4.75
2018-02-14T14:31:47.148Z,4.85
2018-02-14T14:34:15.303Z,4.60
2018-02-14T14:36:44.178Z,4.32
2018-02-14T14:39:12.295Z,4.53
2018-02-14T14:41:40.380Z,4.65
2018-02-14T14:44:08.747Z,4.50
2018-02-14T14:46:36.865Z,4.60
2018-02-14T14:49:06.527Z,4.70
2018-02-14T14:51:34.671Z,4.50
2018-02-14T14:54:03.561Z,4.68
2018-02-14T14:56:32.463Z,4.50
2018-02-14T14:59:00.623Z,4.40
2018-02-14T15:01:29.515Z,4.55
2018-02-14T15:03:58.416Z,5.00
2018-02-14T15:06:26.515Z,4.75
2018-02-14T15:08:54.619Z,4.97
2018-02-14T15:11:22.853Z,4.68
2018-02-14T15:13:51.028Z,4.93
2018-02-14T15:16:19.109Z,4.60
2018-02-14T15:18:47.335Z,4.85
2018-02-14T15:21:16.278Z,4.78
2018-02-14T15:23:44.395Z,5.05
2018-02-14T15:26:13.259Z,5.50
2018-02-14T15:28:41.401Z,5.47
2018-02-14T15:31:09.495Z,5.20
2018-02-14T15:33:37.619Z,5.60
2018-02-14T15:36:06.501Z,6.05
2018-02-14T15:38:34.671Z,6.12
2018-02-14T15:41:03.664Z,6.40
2018-02-14T15:43:32.547Z,6.45
2018-02-14T15:46:01.425Z,6.28
2018-02-14T15:48:29.567Z,6.35
2018-02-14T15:50:57.674Z,5.97
2018-02-14T15:53:26.579Z,6.30
2018-02-14T15:55:55.466Z,6.37
2018-02-14T15:58:24.359Z,6.75
2018-02-14T16:00:53.355Z,6.12
2018-02-14T16:03:21.490Z,6.10
2018-02-14T16:05:49.611Z,6.12
2018-02-14T16:08:17.767Z,6.57
2018-02-14T16:10:46.691Z,6.45
2018-02-14T16:13:14.799Z,6.15
2018-02-14T16:15:42.923Z,6.22
2018-02-14T16:18:11.171Z,6.40
2018-02-14T16:20:40.174Z,6.50
2018-02-14T16:23:09.171Z,6.43
2018-02-14T16:25:37.362Z,7.28
2018-02-14T16:28:05.498Z,6.40
2018-02-14T16:30:34.379Z,6.18
2018-02-14T16:33:02.584Z,6.80
2018-02-14T16:35:30.686Z,6.20
2018-02-14T16:37:58.858Z,6.70
2018-02-14T16:40:27.002Z,6.57
2018-02-14T16:42:55.218Z,6.90
2018-02-14T16:45:23.302Z,6.70
2018-02-14T16:47:51.412Z,7.05
2018-02-14T16:50:20.338Z,6.80
2018-02-14T16:52:48.467Z,7.25
2018-02-14T16:55:16.660Z,7.07
2018-02-14T16:57:45.542Z,7.20
2018-02-14T17:00:13.682Z,6.57
2018-02-14T17:02:41.928Z,7.10
2018-02-14T17:05:10.064Z,7.03
2018-02-14T17:07:38.369Z,7.22
2018-02-14T17:10:06.544Z,7.37
2018-02-14T17:12:34.820Z,7.30
2018-02-14T17:15:02.996Z,7.03
2018-02-14T17:17:31.094Z,7.40
2018-02-14T17:19:59.312Z,7.50
2018-02-14T17:22:27.422Z,7.37
2018-02-14T17:24:55.642Z,8.02
2018-02-14T17:27:23.852Z,7.80
2018-02-14T17:29:51.993Z,7.70
2018-02-14T17:32:20.890Z,7.65
2018-02-14T17:34:49.802Z,7.57
2018-02-14T17:37:17.929Z,7.78
2018-02-14T17:39:46.041Z,6.90
2018-02-14T17:42:14.234Z,7.00
2018-02-14T17:44:42.340Z,6.85
2018-02-14T17:47:10.438Z,6.90
2018-02-14T17:49:38.621Z,6.55
2018-02-14T17:52:06.792Z,6.70
2018-02-14T17:54:35.669Z,6.50
2018-02-14T17:57:04.544Z,6.82
2018-02-14T17:59:32.775Z,7.37
2018-02-14T18:02:00.888Z,7.15
2018-02-14T18:04:29.087Z,7.53
2018-02-14T18:06:57.953Z,6.70
2018-02-14T18:09:26.874Z,7.45
2018-02-14T18:11:55.867Z,7.47
2018-02-14T18:14:24.787Z,7.37
2018-02-14T18:16:52.943Z,7.32
2018-02-14T18:19:21.201Z,7.95
2018-02-14T18:21:50.195Z,7.75
2018-02-14T18:24:19.196Z,8.25
2018-02-14T18:26:47.329Z,8.20
2018-02-14T18:29:15.431Z,7.57
2018-02-14T18:31:44.323Z,7.90
2018-02-14T18:34:13.229Z,8.00
2018-02-14T18:36:41.349Z,8.02
2018-02-14T18:39:09.483Z,8.13
2018-02-14T18:41:37.635Z,8.13
2018-02-14T18:44:05.755Z,8.75
2018-02-14T18:46:33.879Z,7.82
2018-02-14T18:49:02.006Z,8.85
2018-02-14T18:51:30.159Z,9.00
2018-02-14T18:53:58.290Z,9.00
2018-02-14T18:56:27.171Z,8.60
2018-02-14T18:58:56.071Z,9.70
2018-02-14T19:01:24.971Z,9.77
2018-02-14T19:03:53.143Z,9.70
2018-02-14T19:06:22.043Z,9.93
2018-02-14T19:08:50.209Z,9.40
2018-02-14T19:11:18.311Z,9.57
2018-02-14T19:13:46.462Z,10.13
2018-02-14T19:16:14.619Z,10.30
2018-02-14T19:18:42.759Z,10.32
2018-02-14T19:21:10.966Z,9.43
2018-02-14T19:23:39.859Z,10.50
2018-02-14T19:26:08.019Z,10.25
2018-02-14T19:28:36.894Z,10.02
2018-02-14T19:31:05.795Z,9.48
2018-02-14T19:33:34.731Z,10.40
2018-02-14T19:36:02.907Z,10.07
2018-02-14T19:38:31.042Z,10.75
2018-02-14T19:40:59.927Z,10.45
2018-02-14T19:43:28.845Z,10.50
2018-02-14T19:45:57.031Z,10.98
2018-02-14T19:48:25.149Z,10.65
2018-02-14T19:50:53.294Z,9.90
2018-02-14T19:53:21.402Z,10.23
2018-02-14T19:55:50.310Z,10.13
2018-02-14T19:58:18.482Z,10.45
2018-02-14T20:00:47.370Z,9.65
2018-02-14T20:03:15.524Z,10.45
2018-02-14T20:05:45.252Z,9.68
2018-02-14T20:08:13.426Z,9.70
2018-02-14T20:10:41.534Z,9.85
2018-02-14T20:13:09.690Z,9.82
2018-02-14T20:15:37.846Z,9.10
2018-02-14T20:18:06.026Z,10.15
2018-02-14T20:20:34.130Z,9.32
2018-02-14T20:23:02.300Z,9.00
2018-02-14T20:25:30.454Z,9.50
2018-02-14T20:27:58.550Z,8.20
2018-02-14T20:30:26.678Z,8.57
2018-02-14T20:32:54.792Z,8.65
2018-02-14T20:35:22.922Z,9.13
2018-02-14T20:37:51.030Z,8.10
2018-02-14T20:40:19.158Z,8.70
2018-02-14T20:42:48.054Z,8.68
2018-02-14T20:45:16.942Z,7.87
2018-02-14T20:47:45.846Z,8.02
2018-02-14T20:50:13.958Z,8.32
2018-02-14T20:52:42.078Z,8.07
2018-02-14T20:55:11.076Z,7.55
2018-02-14T20:57:39.956Z,7.85
2018-02-14T21:00:08.990Z,8.18
2018-02-14T21:02:37.060Z,7.57
2018-02-14T21:05:05.210Z,7.62
2018-02-14T21:07:33.319Z,7.85
2018-02-14T21:10:01.424Z,8.18
2018-02-14T21:12:30.354Z,8.00
2018-02-14T21:14:58.510Z,8.07
2018-02-14T21:17:26.619Z,7.97
2018-02-14T21:19:54.723Z,7.78
2018-02-14T21:22:22.875Z,8.20
2018-02-14T21:24:50.979Z,7.85
2018-02-14T21:27:19.092Z,8.15
2018-02-14T21:29:47.251Z,7.30
2018-02-14T21:32:15.413Z,7.50
2018-02-14T21:34:44.308Z,7.72
2018-02-14T21:37:13.385Z,7.72
2018-02-14T21:39:41.484Z,8.07
2018-02-14T21:42:09.647Z,7.50
2018-02-14T21:44:37.851Z,7.10
2018-02-14T21:47:05.987Z,7.40
2018-02-14T21:49:34.859Z,7.15
2018-02-14T21:52:03.060Z,7.03
2018-02-14T21:54:31.199Z,7.05
2018-02-14T21:56:59.405Z,7.30
2018-02-14T21:59:28.271Z,7.18
2018-02-14T22:01:57.171Z,7.07
2018-02-14T22:04:26.045Z,7.28
2018-02-14T22:06:54.243Z,7.43
2018-02-14T22:09:23.134Z,7.20
2018-02-14T22:11:52.005Z,6.87
2018-02-14T22:14:20.129Z,6.70
2018-02-14T22:16:48.383Z,6.40
2018-02-14T22:19:17.263Z,6.82
2018-02-14T22:21:46.156Z,6.78
2018-02-14T22:24:15.161Z,6.90
2018-02-14T22:26:43.274Z,6.50
2018-02-14T22:29:11.391Z,6.70
2018-02-14T22:31:40.278Z,6.80
2018-02-14T22:34:09.161Z,6.47
2018-02-14T22:36:38.051Z,6.40
2018-02-14T22:39:06.950Z,6.75
2018-02-14T22:41:35.828Z,6.85
2018-02-14T22:44:04.740Z,5.93
2018-02-14T22:46:32.886Z,6.40
2018-02-14T22:49:00.990Z,5.97
2018-02-14T22:51:29.096Z,6.18
2018-02-14T22:53:57.216Z,5.68
2018-02-14T22:56:26.092Z,5.82
2018-02-14T22:58:55.000Z,6.45
2018-02-14T23:01:23.871Z,6.35
2018-02-14T23:03:52.762Z,5.97
2018-02-14T23:06:20.991Z,5.60
2018-02-14T23:08:49.863Z,6.20
2018-02-14T23:11:17.956Z,6.05
2018-02-14T23:13:46.134Z,5.57
2018-02-14T23:16:14.268Z,6.10
2018-02-14T23:18:42.374Z,5.78
2018-02-14T23:21:10.506Z,6.12
2018-02-14T23:23:39.494Z,5.87
2018-02-14T23:26:08.383Z,5.30
2018-02-14T23:28:37.259Z,5.87
2018-02-14T23:31:05.359Z,5.72
2018-02-14T23:33:33.522Z,5.65
2018-02-14T23:36:02.514Z,5.70
2018-02-14T23:38:31.480Z,6.18
2018-02-14T23:40:59.585Z,5.97
2018-02-14T23:43:28.450Z,5.60
2018-02-14T23:45:57.344Z,6.07
2018-02-14T23:48:26.216Z,5.47
2018-02-14T23:50:54.439Z,5.53
2018-02-14T23:53:22.591Z,5.43
2018-02-14T23:55:51.466Z,5.32
2018-02-14T23:58:19.600Z,5.80
